Time;durP1;ratioP1;P1;durP2;ratioP2;P2;SDS_P1;SDS_P2;PMS_P1;PMS_P2;Temp;Humidity;BMP_temperature;BMP_pressure;BME280_temperature;BME280_humidity;BME280_pressure;Samples;Min_cycle;Max_cycle;Signal;HPM_P1;HPM_P2
2022/12/21 00:00:54;;;;;;;25.00;22.55;;;;;;;-0.71;63.40;95905.75;5114778;28;20215;-74
2022/12/21 00:03:22;;;;;;;25.15;22.73;;;;;;;-0.70;63.40;95901.94;5114910;28;20191;-74
2022/12/21 00:05:49;;;;;;;27.88;25.00;;;;;;;-0.78;63.66;95904.06;5114694;28;20616;-74
2022/12/21 00:08:16;;;;;;;24.85;22.38;;;;;;;-0.82;63.97;95902.97;5114962;28;20192;-74
2022/12/21 00:10:44;;;;;;;23.80;21.25;;;;;;;-0.76;63.80;95895.69;5115068;28;20202;-74
2022/12/21 00:13:11;;;;;;;23.05;20.73;;;;;;;-0.67;63.48;95894.09;5115254;28;20199;-74
2022/12/21 00:15:37;;;;;;;22.63;20.30;;;;;;;-0.64;63.38;95890.88;5115245;28;20195;-74
2022/12/21 00:18:04;;;;;;;22.33;20.02;;;;;;;-0.66;63.29;95892.22;5115889;28;20211;-74
2022/12/21 00:20:31;;;;;;;24.15;21.65;;;;;;;-0.62;63.51;95902.25;5116034;28;20200;-74
2022/12/21 00:22:58;;;;;;;27.17;24.45;;;;;;;-0.61;63.30;95895.78;5115113;28;20231;-74
2022/12/21 00:25:24;;;;;;;27.60;24.77;;;;;;;-0.66;63.28;95890.31;5115062;28;20218;-74
2022/12/21 00:27:53;;;;;;;23.52;21.08;;;;;;;-0.74;63.71;95899.75;5114786;28;20203;-74
2022/12/21 00:30:19;;;;;;;23.25;20.83;;;;;;;-0.79;63.61;95897.03;5114701;28;20630;-74
2022/12/21 00:32:46;;;;;;;23.58;21.35;;;;;;;-0.81;63.70;95895.63;5115314;28;20192;-74
2022/12/21 00:35:13;;;;;;;28.55;25.55;;;;;;;-0.75;64.05;95887.28;5115083;28;20269;-73
2022/12/21 00:37:40;;;;;;;26.75;24.05;;;;;;;-0.70;64.29;95891.09;5114873;28;20226;-74
2022/12/21 00:40:08;;;;;;;26.83;23.95;;;;;;;-0.69;63.83;95884.59;5114515;28;20215;-74
2022/12/21 00:42:34;;;;;;;28.35;25.20;;;;;;;-0.77;63.30;95884.00;5114901;28;20202;-72
2022/12/21 00:45:03;;;;;;;26.98;24.13;;;;;;;-0.84;63.21;95879.91;5114657;28;20207;-74
2022/12/21 00:47:29;;;;;;;27.13;24.23;;;;;;;-0.93;63.40;95881.50;5114458;28;20203;-74
2022/12/21 00:49:56;;;;;;;26.77;23.98;;;;;;;-0.94;63.85;95877.13;5114511;28;20209;-75
2022/12/21 00:52:23;;;;;;;28.77;25.67;;;;;;;-0.89;63.92;95872.56;5114301;28;20184;-74
2022/12/21 00:54:49;;;;;;;26.30;23.70;;;;;;;-0.93;63.82;95866.06;5114846;28;20195;-74
2022/12/21 00:57:16;;;;;;;25.95;23.13;;;;;;;-0.99;63.80;95862.47;5115632;28;20180;-74
2022/12/21 00:59:43;;;;;;;24.58;21.55;;;;;;;-1.02;64.00;95856.75;5115308;28;20185;-74
2022/12/21 01:02:12;;;;;;;24.42;21.95;;;;;;;-1.07;64.61;95848.63;5114468;28;20192;-73
2022/12/21 01:04:39;;;;;;;24.70;21.30;;;;;;;-1.01;64.47;95847.59;5115629;28;20180;-73
2022/12/21 01:07:05;;;;;;;23.88;21.48;;;;;;;-1.06;64.35;95853.75;5115510;28;20231;-73
2022/12/21 01:09:32;;;;;;;24.65;22.10;;;;;;;-1.07;64.64;95856.75;5114522;28;20207;-73
2022/12/21 01:11:59;;;;;;;23.65;21.27;;;;;;;-1.04;64.20;95857.03;5114453;28;20535;-73
2022/12/21 01:14:26;;;;;;;22.70;20.50;;;;;;;-0.99;64.39;95854.34;5114409;28;20199;-73
2022/12/21 01:16:53;;;;;;;18.75;17.02;;;;;;;-0.95;63.87;95854.66;5117489;28;20184;-73
2022/12/21 01:19:21;;;;;;;19.65;17.60;;;;;;;-1.02;63.47;95857.59;5118111;28;20207;-73
2022/12/21 01:21:48;;;;;;;18.63;16.92;;;;;;;-1.10;63.88;95846.44;5117859;28;20291;-73
2022/12/21 01:24:15;;;;;;;20.15;18.13;;;;;;;-1.06;63.98;95853.75;5119125;28;20196;-75
2022/12/21 01:26:42;;;;;;;19.25;17.35;;;;;;;-1.05;63.75;95855.41;5119035;28;20211;-75
2022/12/21 01:29:10;;;;;;;19.92;17.90;;;;;;;-1.10;63.86;95849.13;5118585;28;20187;-74
2022/12/21 01:31:36;;;;;;;21.85;19.58;;;;;;;-1.03;64.30;95855.94;5119242;28;20592;-74
2022/12/21 01:34:03;;;;;;;23.05;20.75;;;;;;;-1.01;64.59;95844.88;5117689;28;20248;-74
2022/12/21 01:36:32;;;;;;;23.13;20.92;;;;;;;-1.00;64.57;95843.78;5118080;28;20233;-74
2022/12/21 01:38:58;;;;;;;23.02;20.65;;;;;;;-1.02;64.50;95844.06;5118408;28;20192;-75
2022/12/21 01:41:27;;;;;;;23.70;21.27;;;;;;;-1.05;64.28;95838.34;5118087;28;20219;-74
2022/12/21 01:43:55;;;;;;;24.80;22.30;;;;;;;-1.11;64.32;95836.69;5117983;28;20192;-74
2022/12/21 01:46:25;;;;;;;23.38;20.98;;;;;;;-1.17;64.43;95833.09;5118284;28;20207;-75
2022/12/21 01:48:57;;;;;;;22.38;20.10;;;;;;;-1.19;64.09;95832.56;5117803;28;20204;-74
2022/12/21 01:51:24;;;;;;;22.17;19.98;;;;;;;-1.21;64.05;95826.59;5117743;28;20203;-75
2022/12/21 01:53:55;;;;;;;22.17;19.95;;;;;;;-1.26;64.20;95826.56;5118039;28;20207;-75
2022/12/21 01:56:25;;;;;;;22.58;20.17;;;;;;;-1.30;64.14;95820.03;5117955;28;20202;-75
2022/12/21 01:58:52;;;;;;;21.42;19.17;;;;;;;-1.35;64.17;95812.69;5118790;28;20199;-74
2022/12/21 02:01:19;;;;;;;21.25;19.20;;;;;;;-1.36;64.54;95815.66;5117635;28;20656;-74
2022/12/21 02:03:47;;;;;;;22.60;20.27;;;;;;;-1.29;64.54;95813.53;5118624;28;20192;-74
2022/12/21 02:06:17;;;;;;;24.90;22.50;;;;;;;-1.25;64.73;95815.47;5118085;28;20200;-74
2022/12/21 02:08:44;;;;;;;25.27;22.80;;;;;;;-1.22;64.30;95817.66;5117511;28;20188;-74
2022/12/21 02:11:15;;;;;;;23.42;21.02;;;;;;;-1.23;64.48;95812.50;5118211;28;20206;-75
2022/12/21 02:13:42;;;;;;;23.50;21.10;;;;;;;-1.16;64.35;95809.56;5117569;28;20204;-75
2022/12/21 02:16:16;;;;;;;20.25;18.35;;;;;;;-1.13;64.03;95814.47;5117220;28;20514;-73
2022/12/21 02:18:55;;;;;;;20.30;18.27;;;;;;;-1.11;64.00;95815.03;5117572;28;20199;-74
2022/12/21 02:21:23;;;;;;;20.65;18.65;;;;;;;-1.13;64.05;95815.25;5116964;28;20679;-73
2022/12/21 02:24:26;;;;;;;23.98;21.77;;;;;;;-1.16;64.36;95807.69;5117164;28;20570;-73
2022/12/21 02:27:35;;;;;;;19.60;17.70;;;;;;;-1.22;64.60;95801.41;5117297;28;20210;-74
2022/12/21 02:30:11;;;;;;;20.88;18.92;;;;;;;-1.17;64.69;95806.03;5080994;28;20208;-74
2022/12/21 02:32:56;;;;;;;22.10;20.05;;;;;;;-1.15;64.86;95803.09;5118406;28;20179;-74
2022/12/21 02:35:36;;;;;;;22.77;20.52;;;;;;;-1.22;64.24;95801.41;5117411;28;20188;-75
2022/12/21 02:38:10;;;;;;;23.85;21.40;;;;;;;-1.32;64.53;95801.34;5116958;28;20205;-74
2022/12/21 02:40:42;;;;;;;23.17;20.80;;;;;;;-1.39;64.50;95805.34;5117060;28;20211;-74
2022/12/21 02:46:02;;;;;;;21.27;19.27;;;;;;;-1.41;64.89;95802.91;5116499;28;20257;-74
2022/12/21 02:48:34;;;;;;;21.70;19.50;;;;;;;-1.37;64.86;95797.81;5117913;27;20195;-74
2022/12/21 02:51:02;;;;;;;21.88;19.75;;;;;;;-1.37;64.93;95789.69;5117578;28;20180;-73
2022/12/21 02:53:31;;;;;;;21.23;19.20;;;;;;;-1.37;64.92;95797.81;5116548;28;20206;-74
2022/12/21 02:55:58;;;;;;;21.08;19.02;;;;;;;-1.36;65.03;95794.00;5116499;28;20195;-74
2022/12/21 02:58:25;;;;;;;23.48;21.23;;;;;;;-1.35;64.46;95790.22;5117111;28;20193;-74
2022/12/21 03:01:02;;;;;;;22.60;20.38;;;;;;;-1.34;64.93;95795.38;5116679;28;20218;-73
2022/12/21 03:03:50;;;;;;;22.23;20.15;;;;;;;-1.36;64.93;95796.72;5116564;28;20203;-74
2022/12/21 03:06:37;;;;;;;22.17;19.95;;;;;;;-1.37;65.24;95792.38;5117292;28;20199;-74
2022/12/21 03:09:14;;;;;;;21.92;19.73;;;;;;;-1.39;64.87;95789.91;5117364;28;20206;-74
2022/12/21 03:11:49;;;;;;;22.50;20.20;;;;;;;-1.38;64.71;95780.75;5116036;28;20523;-74
2022/12/21 03:14:23;;;;;;;22.58;20.30;;;;;;;-1.36;64.84;95781.28;5115984;28;20203;-73
2022/12/21 03:16:51;;;;;;;21.13;19.10;;;;;;;-1.38;65.39;95778.03;5116788;28;20196;-74
2022/12/21 03:19:24;;;;;;;23.10;20.73;;;;;;;-1.35;65.28;95774.78;5116791;28;20180;-74
2022/12/21 03:21:54;;;;;;;22.77;20.58;;;;;;;-1.26;65.33;95775.94;5116913;28;20219;-74
2022/12/21 03:24:26;;;;;;;23.65;21.25;;;;;;;-1.25;65.16;95769.44;5117718;28;20200;-74
2022/12/21 03:26:56;;;;;;;25.52;23.02;;;;;;;-1.31;64.76;95766.97;5117341;28;20195;-73
2022/12/21 03:29:27;;;;;;;28.25;25.60;;;;;;;-1.39;64.52;95760.16;5116238;28;20210;-73
2022/12/21 03:31:58;;;;;;;26.23;23.63;;;;;;;-1.44;64.80;95759.31;5116178;28;20227;-73
2022/12/21 03:34:28;;;;;;;27.92;24.85;;;;;;;-1.51;65.00;95756.84;5117167;28;20608;-73
2022/12/21 03:36:58;;;;;;;26.35;23.58;;;;;;;-1.50;65.39;95753.84;5116959;28;20199;-74
2022/12/21 03:39:27;;;;;;;24.95;22.55;;;;;;;-1.47;65.56;95747.94;5115338;28;20195;-74
2022/12/21 03:41:55;;;;;;;25.50;23.08;;;;;;;-1.42;65.51;95739.03;5116873;28;20200;-73
2022/12/21 03:44:27;;;;;;;24.63;22.27;;;;;;;-1.38;65.69;95745.56;5116091;28;20214;-73
2022/12/21 03:46:55;;;;;;;26.55;23.95;;;;;;;-1.37;64.97;95735.56;5115641;28;20211;-73
2022/12/21 03:49:25;;;;;;;26.85;24.23;;;;;;;-1.44;64.88;95735.78;5116888;28;20183;-74
2022/12/21 03:51:55;;;;;;;26.05;23.55;;;;;;;-1.48;65.37;95735.50;5115884;28;20202;-74
2022/12/21 03:54:29;;;;;;;25.65;23.15;;;;;;;-1.53;65.43;95731.91;5116831;28;20195;-73
2022/12/21 03:56:56;;;;;;;25.92;23.27;;;;;;;-1.52;65.44;95728.97;5116035;28;20261;-74
2022/12/21 03:59:23;;;;;;;26.17;23.48;;;;;;;-1.49;65.26;95731.16;5115624;28;20207;-73
2022/12/21 04:01:58;;;;;;;25.63;22.98;;;;;;;-1.49;65.37;95728.44;5115593;28;20215;-73
2022/12/21 04:04:29;;;;;;;26.05;23.45;;;;;;;-1.54;66.08;95731.09;5116069;28;20191;-74
2022/12/21 04:07:00;;;;;;;26.67;24.02;;;;;;;-1.59;65.97;95741.91;5116137;28;20199;-74
2022/12/21 04:09:27;;;;;;;25.85;23.25;;;;;;;-1.54;65.94;95735.72;5116541;28;20188;-74
2022/12/21 04:14:39;;;;;;;28.77;25.77;;;;;;;-1.58;65.63;95726.47;5115899;28;20191;-74
2022/12/21 04:17:06;;;;;;;27.20;24.50;;;;;;;-1.56;65.82;95727.03;5115482;28;20191;-74
2022/12/21 04:30:25;;;;;;;31.58;28.10;;;;;;;-1.46;65.67;95708.97;5108584;28;20294;-73
2022/12/21 04:32:52;;;;;;;33.38;28.50;;;;;;;-1.47;66.00;95703.81;5115414;28;20191;-73
2022/12/21 04:35:19;;;;;;;34.13;30.48;;;;;;;-1.43;65.76;95702.22;5116001;28;20184;-75
2022/12/21 04:37:46;;;;;;;33.95;30.55;;;;;;;-1.46;65.81;95702.75;5115468;28;20317;-72
2022/12/21 04:40:13;;;;;;;35.38;31.42;;;;;;;-1.39;65.98;95705.22;5115940;28;20216;-72
2022/12/21 04:42:40;;;;;;;32.13;28.80;;;;;;;-1.35;65.43;95693.59;5114645;28;20226;-72
2022/12/21 04:45:08;;;;;;;27.38;24.60;;;;;;;-1.34;64.93;95691.75;5115029;28;20210;-72
2022/12/21 04:47:35;;;;;;;26.67;23.83;;;;;;;-1.42;65.14;95695.72;5115070;28;20192;-71
2022/12/21 04:50:02;;;;;;;26.40;23.77;;;;;;;-1.48;64.92;95710.31;5117054;28;20192;-72
2022/12/21 04:52:28;;;;;;;26.20;23.63;;;;;;;-1.48;65.46;95704.91;5118889;28;20199;-72
2022/12/21 04:54:57;;;;;;;25.45;23.00;;;;;;;-1.45;65.38;95707.09;5119192;28;20215;-71
2022/12/21 04:57:24;;;;;;;27.80;24.48;;;;;;;-1.45;65.15;95707.09;5118897;28;20199;-71
2022/12/21 04:59:50;;;;;;;27.40;24.52;;;;;;;-1.42;65.46;95705.75;5119737;28;20646;-71
2022/12/21 05:02:17;;;;;;;27.33;24.52;;;;;;;-1.43;65.61;95701.41;5119121;28;20222;-71
2022/12/21 05:04:44;;;;;;;28.90;26.10;;;;;;;-1.45;65.91;95701.69;5119155;28;20207;-71
2022/12/21 05:07:10;;;;;;;27.67;24.98;;;;;;;-1.46;65.69;95705.44;5118565;28;20191;-71
2022/12/21 05:09:37;;;;;;;26.60;23.88;;;;;;;-1.48;66.02;95708.44;5118386;28;20196;-71
2022/12/21 05:12:06;;;;;;;27.50;24.70;;;;;;;-1.43;65.99;95706.81;5118961;28;20196;-71
2022/12/21 05:14:33;;;;;;;28.73;25.85;;;;;;;-1.38;65.59;95701.44;5117089;28;20420;-72
2022/12/21 05:17:00;;;;;;;28.20;25.38;;;;;;;-1.36;65.46;95699.28;5118250;28;20651;-71
2022/12/21 05:19:26;;;;;;;28.10;25.40;;;;;;;-1.37;65.49;95703.09;5118200;28;20210;-72
2022/12/21 05:21:53;;;;;;;29.17;26.35;;;;;;;-1.42;65.26;95698.44;5117806;28;20238;-72
2022/12/21 05:24:20;;;;;;;29.02;26.15;;;;;;;-1.42;65.63;95700.34;5118276;28;20184;-72
2022/12/21 05:26:47;;;;;;;29.13;25.95;;;;;;;-1.42;65.80;95694.91;5118071;28;20207;-72
2022/12/21 05:29:15;;;;;;;27.55;24.75;;;;;;;-1.41;65.56;95696.56;5117902;28;20204;-72
2022/12/21 05:31:41;;;;;;;28.20;25.05;;;;;;;-1.44;65.53;95697.91;5117505;28;20626;-72
2022/12/21 05:34:08;;;;;;;28.50;25.65;;;;;;;-1.40;65.79;95695.47;5117801;28;20203;-72
2022/12/21 05:36:35;;;;;;;29.27;26.27;;;;;;;-1.38;65.62;95693.31;5118066;28;20195;-72
2022/12/21 05:39:02;;;;;;;27.90;25.30;;;;;;;-1.35;65.33;95699.00;5118036;28;20215;-71
2022/12/21 05:41:31;;;;;;;28.85;26.02;;;;;;;-1.42;65.01;95695.72;5117279;28;20215;-72
2022/12/21 05:43:58;;;;;;;29.17;26.35;;;;;;;-1.54;65.61;95690.53;5118287;28;20196;-72
2022/12/21 05:46:26;;;;;;;27.45;24.63;;;;;;;-1.61;66.08;95692.66;5117436;28;20301;-71
2022/12/21 05:48:54;;;;;;;28.00;25.30;;;;;;;-1.54;65.99;95687.00;5117315;28;20196;-71
2022/12/21 05:51:21;;;;;;;27.50;24.73;;;;;;;-1.55;66.09;95691.59;5117395;28;20203;-71
2022/12/21 05:53:48;;;;;;;28.80;25.80;;;;;;;-1.43;66.04;95685.19;5117752;28;20200;-70
2022/12/21 05:56:14;;;;;;;30.02;26.90;;;;;;;-1.45;65.74;95690.88;5117766;28;20203;-72
2022/12/21 05:58:41;;;;;;;40.40;36.67;;;;;;;-1.44;65.50;95697.91;5117119;28;20440;-73
2022/12/21 06:01:11;;;;;;;32.95;26.55;;;;;;;-1.47;64.93;95691.09;5116677;28;20234;-72
2022/12/21 06:03:40;;;;;;;31.73;26.40;;;;;;;-1.44;65.00;95681.66;5117034;28;20219;-72
2022/12/21 06:06:08;;;;;;;28.95;25.55;;;;;;;-1.40;64.70;95692.78;5117191;28;20191;-72
2022/12/21 06:08:35;;;;;;;30.67;26.20;;;;;;;-1.41;64.62;95691.97;5117340;28;20535;-71
2022/12/21 06:11:07;;;;;;;32.83;28.65;;;;;;;-1.37;64.90;95689.56;5117177;28;20188;-72
2022/12/21 06:13:34;;;;;;;36.88;32.85;;;;;;;-1.36;64.54;95686.56;5117233;28;20198;-71
2022/12/21 06:16:05;;;;;;;41.60;35.50;;;;;;;-1.37;65.12;95684.13;5117676;28;20200;-71
2022/12/21 06:18:32;;;;;;;44.38;35.72;;;;;;;-1.31;64.77;95691.19;5117803;28;20199;-71
2022/12/21 06:21:00;;;;;;;38.30;32.30;;;;;;;-1.23;64.64;95694.22;5117122;28;20198;-71
2022/12/21 06:23:27;;;;;;;38.22;31.20;;;;;;;-1.22;64.34;95685.03;5117225;28;20235;-71
2022/12/21 06:25:58;;;;;;;34.95;30.23;;;;;;;-1.17;64.63;95684.22;5117156;28;20187;-71
2022/12/21 06:28:26;;;;;;;35.55;29.52;;;;;;;-1.22;64.76;95681.50;5117761;28;20604;-72
2022/12/21 06:30:53;;;;;;;34.00;29.10;;;;;;;-1.22;65.19;95687.72;5116696;28;20607;-72
2022/12/21 06:33:21;;;;;;;27.85;24.15;;;;;;;-1.12;65.04;95684.25;5116678;28;20192;-72
2022/12/21 06:35:48;;;;;;;29.10;25.30;;;;;;;-0.99;64.57;95688.38;5117451;28;20191;-72
2022/12/21 06:38:17;;;;;;;29.00;24.85;;;;;;;-0.91;64.36;95674.31;5117450;28;20187;-72
2022/12/21 06:40:43;;;;;;;34.95;29.65;;;;;;;-0.81;64.33;95676.25;5117146;28;20204;-72
2022/12/21 06:43:10;;;;;;;32.63;29.05;;;;;;;-0.78;64.83;95681.13;5116550;28;20224;-72
2022/12/21 06:45:38;;;;;;;36.70;28.88;;;;;;;-0.72;64.46;95688.19;5117032;28;20201;-72
2022/12/21 06:48:05;;;;;;;32.83;28.15;;;;;;;-0.67;64.66;95684.69;5116950;28;20272;-71
2022/12/21 06:50:32;;;;;;;39.88;33.08;;;;;;;-0.63;64.87;95685.78;5117312;28;20196;-71
2022/12/21 06:52:59;;;;;;;36.17;32.13;;;;;;;-0.56;64.75;95681.72;5116592;28;20192;-71
2022/12/21 06:55:46;;;;;;;36.30;32.20;;;;;;;-0.44;64.29;95686.09;5117430;28;20245;-71
2022/12/21 06:58:32;;;;;;;35.35;30.52;;;;;;;-0.37;64.29;95684.75;5117302;28;20203;-71
2022/12/21 07:01:19;;;;;;;36.20;30.13;;;;;;;-0.33;64.08;95688.56;5117459;28;20187;-72
2022/12/21 07:04:05;;;;;;;36.55;32.67;;;;;;;-0.28;64.05;95696.69;5117728;28;20237;-72
2022/12/21 07:06:50;;;;;;;36.40;32.70;;;;;;;-0.35;63.62;95698.84;5117911;28;20237;-71
2022/12/21 07:09:17;;;;;;;35.13;31.55;;;;;;;-0.29;64.05;95702.38;5117918;28;20200;-71
2022/12/21 07:11:46;;;;;;;37.10;32.25;;;;;;;-0.20;63.81;95698.06;5116591;28;20199;-71
2022/12/21 07:14:13;;;;;;;40.38;36.33;;;;;;;-0.14;63.90;95707.84;5115612;28;20231;-70
2022/12/21 07:16:40;;;;;;;47.80;43.30;;;;;;;-0.11;64.10;95703.75;5116653;28;20200;-70
2022/12/21 07:19:07;;;;;;;54.35;49.22;;;;;;;-0.08;64.42;95704.03;5115928;28;20200;-70
2022/12/21 07:21:34;;;;;;;49.25;44.40;;;;;;;-0.02;64.05;95708.38;5115530;28;20555;-70
2022/12/21 07:24:01;;;;;;;54.92;49.67;;;;;;;0.03;63.62;95695.91;5115446;28;20222;-70
2022/12/21 07:26:28;;;;;;;56.15;50.92;;;;;;;0.05;63.51;95694.56;5115688;28;20202;-70
2022/12/21 07:28:57;;;;;;;62.47;56.60;;;;;;;0.08;64.01;95698.63;5116213;28;20210;-71
2022/12/21 07:31:25;;;;;;;69.72;63.03;;;;;;;0.21;64.16;95698.06;5116113;28;20202;-70
2022/12/21 07:33:53;;;;;;;72.90;65.88;;;;;;;0.32;63.92;95696.97;5116361;28;20208;-70
2022/12/21 07:36:38;;;;;;;73.07;65.78;;;;;;;0.40;63.33;95693.72;5115954;28;20211;-70
2022/12/21 07:39:05;;;;;;;75.43;68.22;;;;;;;0.43;63.48;95684.19;5115701;28;20209;-70
2022/12/21 07:41:32;;;;;;;69.57;62.78;;;;;;;0.48;63.33;95690.44;5115725;28;20208;-70
2022/12/21 07:44:00;;;;;;;63.70;57.50;;;;;;;0.50;63.54;95689.34;5116052;28;20639;-70
2022/12/21 07:46:27;;;;;;;60.78;54.58;;;;;;;0.50;63.40;95687.44;5116060;28;20218;-71
2022/12/21 07:48:53;;;;;;;52.90;47.45;;;;;;;0.52;63.35;95687.19;5115779;28;20192;-71
2022/12/21 07:51:20;;;;;;;50.50;45.50;;;;;;;0.54;63.09;95685.00;5115720;28;20196;-71
2022/12/21 07:53:47;;;;;;;48.50;43.78;;;;;;;0.55;63.15;95690.19;5115525;28;20199;-71
2022/12/21 07:56:16;;;;;;;47.08;42.17;;;;;;;0.64;63.29;95693.13;5115775;28;20204;-71
2022/12/21 07:58:43;;;;;;;47.28;42.42;;;;;;;0.75;63.53;95700.16;5115524;28;20204;-71
2022/12/21 08:01:13;;;;;;;48.72;43.67;;;;;;;0.90;63.35;95693.88;5115649;28;20196;-71
2022/12/21 08:03:42;;;;;;;56.85;51.15;;;;;;;1.05;63.10;95688.38;5115240;28;20215;-71
2022/12/21 08:06:09;;;;;;;49.30;44.45;;;;;;;1.18;63.07;95690.50;5116095;28;20252;-71
2022/12/21 08:08:36;;;;;;;48.53;43.65;;;;;;;1.33;61.95;95678.75;5115600;28;20626;-71
2022/12/21 08:11:03;;;;;;;46.88;42.05;;;;;;;1.41;62.37;95677.34;5115338;28;20199;-71
2022/12/21 08:13:30;;;;;;;45.67;41.35;;;;;;;1.55;61.87;95675.66;5115317;28;20199;-71
2022/12/21 08:16:01;;;;;;;46.67;42.22;;;;;;;1.65;61.48;95678.31;5115981;28;20187;-71
2022/12/21 08:18:29;;;;;;;44.40;40.20;;;;;;;1.78;61.36;95659.72;5115678;28;20184;-71
2022/12/21 08:20:56;;;;;;;44.38;39.92;;;;;;;1.92;60.32;95664.28;5115390;28;20195;-71
2022/12/21 08:23:23;;;;;;;43.53;39.17;;;;;;;1.99;60.49;95654.97;5114577;28;20231;-71
2022/12/21 08:25:50;;;;;;;44.25;39.75;;;;;;;2.06;61.00;95655.44;5114664;28;20188;-71
2022/12/21 08:28:17;;;;;;;41.80;37.70;;;;;;;2.10;60.23;95649.13;5114706;28;20202;-71
2022/12/21 08:30:44;;;;;;;40.60;36.70;;;;;;;2.14;60.04;95652.09;5115072;28;20198;-71
2022/12/21 08:33:13;;;;;;;37.70;33.90;;;;;;;2.15;59.50;95649.13;5115084;28;20187;-71
2022/12/21 08:35:44;;;;;;;35.92;32.22;;;;;;;2.25;59.43;95644.66;5114605;28;20215;-71
2022/12/21 08:38:12;;;;;;;36.33;32.83;;;;;;;2.34;59.20;95634.78;5115131;28;20188;-71
2022/12/21 08:40:40;;;;;;;35.80;32.20;;;;;;;2.42;58.70;95640.41;5115201;28;20191;-71
2022/12/21 08:43:09;;;;;;;38.40;34.55;;;;;;;2.46;58.62;95632.47;5114770;28;20640;-71
2022/12/21 08:45:36;;;;;;;38.97;35.10;;;;;;;2.52;57.93;95625.91;5097999;28;20211;-71
2022/12/21 08:48:02;;;;;;;39.33;35.15;;;;;;;2.59;58.45;95629.09;5115577;28;20210;-71
2022/12/21 08:50:30;;;;;;;40.58;36.47;;;;;;;2.69;58.50;95617.28;5115195;28;20195;-71
2022/12/21 08:52:58;;;;;;;44.13;39.75;;;;;;;2.78;58.55;95626.44;5114752;28;20203;-71
2022/12/21 08:55:26;;;;;;;41.15;36.97;;;;;;;2.83;58.53;95614.66;5114749;28;20203;-70
2022/12/21 08:57:53;;;;;;;40.17;36.28;;;;;;;2.93;57.76;95614.53;5114803;28;20207;-72
2022/12/21 09:00:20;;;;;;;38.50;34.50;;;;;;;3.05;58.13;95609.50;5115170;28;20194;-72
2022/12/21 09:02:47;;;;;;;35.97;32.45;;;;;;;3.21;57.42;95606.56;5114483;28;20223;-71
2022/12/21 09:05:14;;;;;;;34.55;30.83;;;;;;;3.25;55.86;95604.88;5114713;28;20202;-72
2022/12/21 09:07:41;;;;;;;36.38;32.80;;;;;;;3.36;56.51;95607.16;5114733;28;20187;-72
2022/12/21 09:10:11;;;;;;;37.28;33.47;;;;;;;3.48;56.52;95598.53;5114774;28;20214;-72
2022/12/21 09:12:38;;;;;;;35.05;31.45;;;;;;;3.70;56.26;95594.41;5114789;28;20218;-72
2022/12/21 09:15:05;;;;;;;34.45;30.98;;;;;;;3.80;55.29;95592.31;5114852;28;20658;-71
2022/12/21 09:17:32;;;;;;;35.67;32.35;;;;;;;3.89;54.65;95595.22;5114551;28;20195;-70
2022/12/21 09:19:59;;;;;;;34.03;30.55;;;;;;;3.96;54.45;95578.44;5115144;28;20210;-70
2022/12/21 09:22:25;;;;;;;33.95;30.52;;;;;;;4.04;53.21;95572.31;5114881;28;20238;-70
2022/12/21 09:24:52;;;;;;;33.15;30.02;;;;;;;4.13;53.46;95554.13;5115029;28;20199;-71
2022/12/21 09:27:21;;;;;;;35.58;32.17;;;;;;;4.26;53.26;95555.28;5114834;28;20199;-71
2022/12/21 09:29:48;;;;;;;38.33;34.72;;;;;;;4.41;53.14;95551.44;5114556;28;20310;-71
2022/12/21 09:32:15;;;;;;;37.42;33.58;;;;;;;4.51;53.13;95541.13;5115013;28;20242;-71
2022/12/21 09:34:41;;;;;;;37.08;33.33;;;;;;;4.62;52.48;95539.03;5114276;28;20695;-71
2022/12/21 09:37:08;;;;;;;36.80;33.20;;;;;;;4.72;52.71;95537.97;5116278;28;20568;-73
2022/12/21 09:39:35;;;;;;;38.08;34.28;;;;;;;4.89;52.47;95535.44;5118033;28;20196;-69
2022/12/21 09:42:21;;;;;;;40.58;36.58;;;;;;;5.07;52.44;95533.72;5118063;28;20187;-69
2022/12/21 09:45:13;;;;;;;43.42;39.17;;;;;;;5.17;51.93;95532.69;5117016;28;20226;-69
2022/12/21 09:47:45;;;;;;;46.53;41.85;;;;;;;5.33;51.63;95525.75;5117893;28;20192;-70
2022/12/21 09:50:16;;;;;;;44.80;39.95;;;;;;;5.46;51.33;95524.91;5117968;28;20191;-70
2022/12/21 09:52:46;;;;;;;43.63;39.42;;;;;;;5.51;50.92;95529.44;5119147;28;20252;-70
2022/12/21 09:55:16;;;;;;;43.40;39.10;;;;;;;5.55;50.17;95531.25;5118378;28;20195;-70
2022/12/21 09:57:45;;;;;;;45.47;41.08;;;;;;;5.63;50.42;95528.88;5117989;28;20187;-69
2022/12/21 10:00:16;;;;;;;47.83;43.10;;;;;;;5.66;49.23;95509.91;5117717;28;20202;-69
2022/12/21 10:03:08;;;;;;;46.95;42.28;;;;;;;5.56;49.55;95507.44;5117091;28;20202;-69
2022/12/21 10:05:53;;;;;;;46.28;41.67;;;;;;;5.71;49.20;95504.34;5097105;28;20608;-70
2022/12/21 10:08:39;;;;;;;50.03;45.03;;;;;;;5.61;49.21;95496.38;5118027;28;20306;-69
2022/12/21 10:11:14;;;;;;;49.92;45.03;;;;;;;5.53;50.04;95486.97;5117467;28;20196;-69
2022/12/21 10:13:47;;;;;;;50.83;45.90;;;;;;;5.54;50.41;95487.78;5117390;28;20224;-69
2022/12/21 10:16:25;;;;;;;51.40;46.35;;;;;;;5.51;49.66;95478.25;5118055;28;20188;-69
2022/12/21 10:19:00;;;;;;;51.05;46.05;;;;;;;5.48;50.34;95467.13;5117579;28;20191;-69
2022/12/21 10:21:36;;;;;;;49.78;45.17;;;;;;;5.48;49.99;95467.97;5116778;28;20269;-70
2022/12/21 10:24:05;;;;;;;51.47;46.55;;;;;;;5.40;50.55;95465.13;5117636;28;20211;-70
2022/12/21 10:26:33;;;;;;;50.55;45.25;;;;;;;5.32;50.13;95456.56;5117302;28;20203;-69
2022/12/21 10:29:04;;;;;;;49.72;44.95;;;;;;;5.20;49.59;95447.31;5117023;28;20187;-70
2022/12/21 10:31:35;;;;;;;49.95;45.15;;;;;;;5.07;50.08;95438.00;5117296;28;20206;-70
2022/12/21 10:34:04;;;;;;;51.97;46.97;;;;;;;5.01;49.76;95440.06;5117603;28;20203;-69
2022/12/21 10:36:35;;;;;;;58.25;52.38;;;;;;;4.98;50.93;95437.94;5117372;28;20195;-70
2022/12/21 10:39:03;;;;;;;65.82;59.13;;;;;;;4.98;51.61;95439.88;5118249;28;20194;-70
2022/12/21 10:41:33;;;;;;;60.72;54.63;;;;;;;4.91;51.44;95436.75;5116877;28;20188;-70
2022/12/21 10:44:02;;;;;;;63.80;57.30;;;;;;;4.76;51.41;95441.44;5116837;28;20227;-69
2022/12/21 10:46:31;;;;;;;64.65;58.03;;;;;;;4.74;51.62;95434.66;5117281;28;20230;-69
2022/12/21 10:49:01;;;;;;;62.80;56.17;;;;;;;4.76;51.16;95427.78;5116786;28;20191;-70
2022/12/21 10:51:32;;;;;;;56.85;51.08;;;;;;;4.78;51.54;95425.53;5116891;28;20192;-69
2022/12/21 10:54:02;;;;;;;54.92;49.20;;;;;;;4.80;52.48;95425.25;5117215;28;20539;-69
2022/12/21 10:56:30;;;;;;;53.67;48.28;;;;;;;4.77;51.87;95418.47;5116965;28;20218;-69
2022/12/21 10:59:06;;;;;;;43.55;39.10;;;;;;;4.76;51.36;95426.97;5116597;28;20213;-69
2022/12/21 11:01:33;;;;;;;37.13;33.67;;;;;;;4.77;51.21;95413.00;5116437;28;20256;-69
2022/12/21 11:04:10;;;;;;;37.95;34.17;;;;;;;4.81;51.04;95424.94;5116563;28;20211;-70
2022/12/21 11:06:37;;;;;;;38.88;35.15;;;;;;;4.82;50.95;95412.88;5117162;28;20252;-69
2022/12/21 11:09:27;;;;;;;41.85;37.55;;;;;;;4.87;51.14;95408.44;5116965;28;20199;-69
2022/12/21 11:11:54;;;;;;;39.97;36.30;;;;;;;4.99;50.89;95409.50;5116104;28;20669;-69
2022/12/21 11:14:23;;;;;;;38.22;34.40;;;;;;;5.30;50.77;95404.09;5116548;28;20223;-69
2022/12/21 11:16:50;;;;;;;39.47;35.78;;;;;;;5.74;50.00;95396.16;5116715;28;20196;-69
2022/12/21 11:19:18;;;;;;;42.28;38.05;;;;;;;6.21;49.36;95391.09;5116411;28;20195;-69
2022/12/21 11:21:47;;;;;;;45.85;41.60;;;;;;;6.70;48.57;95391.84;5115950;28;20331;-69
2022/12/21 11:24:15;;;;;;;44.67;40.30;;;;;;;7.11;47.06;95385.88;5116928;28;20204;-69
2022/12/21 11:26:44;;;;;;;43.70;39.53;;;;;;;7.63;45.72;95377.59;5117126;28;20188;-69
2022/12/21 11:29:18;;;;;;;43.70;39.25;;;;;;;8.50;45.69;95376.50;5116183;28;20196;-70
2022/12/21 11:31:46;;;;;;;43.42;39.15;;;;;;;9.70;42.81;95378.63;5116037;28;20515;-70
2022/12/21 11:34:31;;;;;;;44.33;39.70;;;;;;;11.02;39.91;95364.44;5116195;28;20208;-69
2022/12/21 11:37:00;;;;;;;43.53;39.03;;;;;;;12.03;36.55;95355.09;5116096;28;20219;-69
2022/12/21 11:39:27;;;;;;;44.53;39.95;;;;;;;12.63;35.64;95356.94;5116397;28;20211;-69
2022/12/21 11:41:55;;;;;;;43.25;38.95;;;;;;;12.84;34.34;95351.09;5116312;28;20287;-69
2022/12/21 11:44:26;;;;;;;40.38;36.35;;;;;;;12.69;34.50;95356.31;5116632;28;20553;-69
2022/12/21 11:47:08;;;;;;;37.75;33.83;;;;;;;12.63;34.69;95343.09;5116765;28;20210;-69